Terminal Aerodrome Forecast
Issued by NWS Huntsville, AL

Home | Current Version | Previous Version | Text Only | Print | Product List | Glossary On
Versions: 1 2 3 4 5 6 7 8 9 10 11 12 13 14 15 16 17 18 19 20 21 22 23 24 25 26 27 28 29 30 31 32 33 34 35 36 37 38 39 40 41
000
FTUS44 KHUN 182328
TAFHSV
TAF
KHSV 182328Z 1900/1924 VRB05KT P6SM SCT030 OVC100
     FM190300 VRB05KT P6SM VCSH BKN030
     FM190700 VRB05KT 5SM -SHRA BR OVC015
     FM191200 22010KT 3SM SHRA BR OVC009
     FM191800 23015KT P6SM OVC030
      TEMPO 1920/1924 5SM -TSRA BR BKN015CB=

USA.gov is the U.S. government's official web portal to all federal, state and local government web resources and services.